createdAt,value
2018-05-01T00:00:37.604Z,7.17
2018-05-01T00:03:40.146Z,8.33
2018-05-01T00:06:42.704Z,9.40
2018-05-01T00:09:45.201Z,8.10
2018-05-01T00:12:47.686Z,8.10
2018-05-01T00:15:50.163Z,8.80
2018-05-01T00:18:52.717Z,7.17
2018-05-01T00:21:55.212Z,5.77
2018-05-01T00:24:57.739Z,5.53
2018-05-01T00:28:00.267Z,6.73
2018-05-01T00:31:02.845Z,6.53
2018-05-01T00:34:05.394Z,5.33
2018-05-01T00:37:08.594Z,6.90
2018-05-01T00:40:11.092Z,5.00
2018-05-01T00:43:13.596Z,6.37
2018-05-01T00:46:16.109Z,6.03
2018-05-01T00:49:18.596Z,6.37
2018-05-01T00:52:32.740Z,5.27
2018-05-01T00:55:35.264Z,5.77
2018-05-01T00:58:37.779Z,7.10
2018-05-01T01:01:40.269Z,6.07
2018-05-01T01:04:42.787Z,6.83
2018-05-01T01:07:45.282Z,5.23
2018-05-01T01:10:47.772Z,7.73
2018-05-01T01:13:50.280Z,5.17
2018-05-01T01:16:52.756Z,4.53
2018-05-01T01:19:55.247Z,5.27
2018-05-01T01:22:57.712Z,4.40
2018-05-01T01:26:00.201Z,4.33
2018-05-01T01:29:02.671Z,4.63
2018-05-01T01:32:14.982Z,5.53
2018-05-01T01:35:16.947Z,4.80
2018-05-01T01:38:18.897Z,5.17
2018-05-01T01:41:20.874Z,6.50
2018-05-01T01:44:22.896Z,7.30
2018-05-01T01:47:24.867Z,4.73
2018-05-01T01:50:26.823Z,4.63
2018-05-01T01:53:28.793Z,7.17
2018-05-01T01:56:30.753Z,3.87
2018-05-01T01:59:33.121Z,6.87
2018-05-01T02:02:35.082Z,4.37
2018-05-01T02:05:37.023Z,6.80
2018-05-01T02:08:38.965Z,4.60
2018-05-01T02:11:40.991Z,4.20
2018-05-01T02:14:42.955Z,4.50
2018-05-01T02:17:44.912Z,4.37
2018-05-01T02:20:46.846Z,3.87
2018-05-01T02:23:48.776Z,5.87
2018-05-01T02:26:50.711Z,5.67
2018-05-01T02:29:52.746Z,5.67
2018-05-01T02:32:54.718Z,3.97
2018-05-01T02:35:56.672Z,4.37
2018-05-01T02:38:58.604Z,4.47
2018-05-01T02:42:00.572Z,4.13
2018-05-01T02:45:02.508Z,3.93
2018-05-01T02:48:04.485Z,5.37
2018-05-01T02:51:06.542Z,7.20
2018-05-01T02:54:08.532Z,4.47
2018-05-01T02:57:10.480Z,5.60
2018-05-01T03:00:12.454Z,5.47
2018-05-01T03:03:14.435Z,3.80
2018-05-01T03:06:16.423Z,3.63
2018-05-01T03:09:18.428Z,5.63
2018-05-01T03:12:20.384Z,4.43
2018-05-01T03:15:22.341Z,4.23
2018-05-01T03:18:24.307Z,4.87
2018-05-01T03:21:26.315Z,3.67
2018-05-01T03:24:28.259Z,4.53
2018-05-01T03:27:30.241Z,5.00
2018-05-01T03:30:32.190Z,3.40
2018-05-01T03:33:34.199Z,5.93
2018-05-01T03:36:36.154Z,4.63
2018-05-01T03:39:38.099Z,3.00
2018-05-01T03:42:40.075Z,3.00
2018-05-01T03:45:42.025Z,3.03
2018-05-01T03:48:43.990Z,5.10
2018-05-01T03:51:45.929Z,3.43
2018-05-01T03:54:47.896Z,7.03
2018-05-01T03:57:49.855Z,4.00
2018-05-01T04:00:51.866Z,4.37
2018-05-01T04:03:53.767Z,5.37
2018-05-01T04:06:55.743Z,2.90
2018-05-01T04:09:57.718Z,3.27
2018-05-01T04:12:59.692Z,2.67
2018-05-01T04:16:01.679Z,2.40
2018-05-01T04:19:03.654Z,3.33
2018-05-01T04:22:05.633Z,2.23
2018-05-01T04:25:07.590Z,2.50
2018-05-01T04:28:09.564Z,2.80
2018-05-01T04:31:11.526Z,2.23
2018-05-01T04:34:13.542Z,2.37
2018-05-01T04:37:15.545Z,3.00
2018-05-01T04:40:17.571Z,2.70
2018-05-01T04:43:20.066Z,2.20
2018-05-01T04:46:22.042Z,2.53
2018-05-01T04:49:24.057Z,2.43
2018-05-01T04:52:26.041Z,2.90
2018-05-01T04:55:28.086Z,3.40
2018-05-01T04:58:30.122Z,2.43
2018-05-01T05:01:32.086Z,2.97
2018-05-01T05:04:34.023Z,2.10
2018-05-01T05:07:35.972Z,2.30
2018-05-01T05:10:37.911Z,1.60
2018-05-01T05:13:39.853Z,1.70
2018-05-01T05:16:41.810Z,1.80
2018-05-01T05:19:43.793Z,3.03
2018-05-01T05:22:45.759Z,2.13
2018-05-01T05:25:47.741Z,1.70
2018-05-01T05:28:49.688Z,2.40
2018-05-01T05:31:51.648Z,1.73
2018-05-01T05:34:53.616Z,1.73
2018-05-01T05:37:55.567Z,2.93
2018-05-01T05:40:57.515Z,1.77
2018-05-01T05:43:59.489Z,1.80
2018-05-01T05:47:01.500Z,2.00
2018-05-01T05:50:03.595Z,1.57
2018-05-01T05:53:05.542Z,1.07
2018-05-01T05:56:07.562Z,2.40
2018-05-01T05:59:18.848Z,1.53
2018-05-01T06:02:20.834Z,2.33
2018-05-01T06:05:22.778Z,1.30
2018-05-01T06:08:24.755Z,1.20
2018-05-01T06:11:26.719Z,2.17
2018-05-01T06:14:28.728Z,1.50
2018-05-01T06:17:30.781Z,5.47
2018-05-01T06:20:32.718Z,2.67
2018-05-01T06:23:34.689Z,4.73
2018-05-01T06:26:36.667Z,9.57
2018-05-01T06:29:38.650Z,1.93
2018-05-01T06:32:41.624Z,2.73
2018-05-01T06:35:43.610Z,1.13
2018-05-01T06:38:45.536Z,3.03
2018-05-01T06:41:47.523Z,1.07
2018-05-01T06:44:49.552Z,1.50
2018-05-01T06:47:51.530Z,2.23
2018-05-01T06:50:54.831Z,5.73
2018-05-01T06:53:59.416Z,2.00
2018-05-01T06:57:01.383Z,1.70
2018-05-01T07:00:03.354Z,1.13
2018-05-01T07:03:05.384Z,2.97
2018-05-01T07:06:07.391Z,2.60
2018-05-01T07:09:09.330Z,1.63
2018-05-01T07:12:11.324Z,2.67
2018-05-01T07:15:13.286Z,1.10
2018-05-01T07:18:15.270Z,1.17
2018-05-01T07:21:17.277Z,1.70
2018-05-01T07:24:19.252Z,2.90
2018-05-01T07:27:21.283Z,1.57
2018-05-01T07:30:23.202Z,1.63
2018-05-01T07:33:25.185Z,2.83
2018-05-01T07:36:27.212Z,1.90
2018-05-01T07:39:29.202Z,2.43
2018-05-01T07:42:31.213Z,2.70
2018-05-01T07:45:33.259Z,1.20
2018-05-01T07:48:35.242Z,3.07
2018-05-01T07:51:37.207Z,1.23
2018-05-01T07:54:39.218Z,2.10
2018-05-01T07:57:41.228Z,5.80
2018-05-01T08:00:43.286Z,5.87
2018-05-01T08:03:45.451Z,1.60
2018-05-01T08:06:47.451Z,1.67
2018-05-01T08:09:49.417Z,2.10
2018-05-01T08:12:51.427Z,2.93
2018-05-01T08:15:53.397Z,1.00
2018-05-01T08:18:55.413Z,4.43
2018-05-01T08:21:57.411Z,4.87
2018-05-01T08:24:59.412Z,1.47
2018-05-01T08:28:01.454Z,3.70
2018-05-01T08:31:03.453Z,0.90
2018-05-01T08:34:05.460Z,6.63
2018-05-01T08:37:07.476Z,2.30
2018-05-01T08:40:09.547Z,4.70
2018-05-01T08:43:11.641Z,1.07
2018-05-01T08:46:13.624Z,1.97
2018-05-01T08:49:15.661Z,1.27
2018-05-01T08:52:17.631Z,1.80
2018-05-01T08:55:19.655Z,5.17
2018-05-01T08:58:21.688Z,2.83
2018-05-01T09:01:23.699Z,3.33
2018-05-01T09:04:25.718Z,7.33
2018-05-01T09:07:27.765Z,1.63
2018-05-01T09:10:29.771Z,2.80
2018-05-01T09:13:31.777Z,1.20
2018-05-01T09:16:33.835Z,5.60
2018-05-01T09:19:35.878Z,1.50
2018-05-01T09:22:37.894Z,3.73
2018-05-01T09:25:40.653Z,4.43
2018-05-01T09:28:42.689Z,1.80
2018-05-01T09:31:44.664Z,4.10
2018-05-01T09:34:46.829Z,2.20
2018-05-01T09:37:48.862Z,1.10
2018-05-01T09:40:50.885Z,14.73
2018-05-01T09:43:52.938Z,2.50
2018-05-01T09:46:54.954Z,8.40
2018-05-01T09:49:57.025Z,7.27
2018-05-01T09:52:59.642Z,3.30
2018-05-01T09:56:02.218Z,3.67
2018-05-01T09:59:04.796Z,6.57
2018-05-01T10:02:07.345Z,0.70
2018-05-01T10:05:09.959Z,2.50
2018-05-01T10:08:12.475Z,2.60
2018-05-01T10:11:15.042Z,1.57
2018-05-01T10:14:17.625Z,2.97
2018-05-01T10:17:20.266Z,1.37
2018-05-01T10:20:22.849Z,2.50
2018-05-01T10:23:25.398Z,2.33
2018-05-01T10:26:28.581Z,6.30
2018-05-01T10:29:31.144Z,0.77
2018-05-01T10:32:33.701Z,2.70
2018-05-01T10:35:36.977Z,4.43
2018-05-01T10:38:39.709Z,4.90
2018-05-01T10:41:42.425Z,3.57
2018-05-01T10:44:44.972Z,4.97
2018-05-01T10:47:48.032Z,1.07
2018-05-01T10:50:50.634Z,2.93
2018-05-01T10:53:53.378Z,1.40
2018-05-01T10:56:56.024Z,2.33
2018-05-01T10:59:58.617Z,7.13
2018-05-01T11:03:01.160Z,4.87
2018-05-01T11:06:04.565Z,3.67
2018-05-01T11:09:07.144Z,4.13
2018-05-01T11:12:12.033Z,0.77
2018-05-01T11:15:14.684Z,1.50
2018-05-01T11:18:17.297Z,2.53
2018-05-01T11:21:20.001Z,2.73
2018-05-01T11:24:22.533Z,5.03
2018-05-01T11:27:25.088Z,3.80
2018-05-01T11:30:27.733Z,3.23
2018-05-01T11:33:30.401Z,2.17
2018-05-01T11:36:32.914Z,3.47
2018-05-01T11:39:35.547Z,3.33
2018-05-01T11:42:38.162Z,1.20
2018-05-01T11:45:40.729Z,1.10
2018-05-01T11:48:43.296Z,2.13
2018-05-01T11:51:45.808Z,3.43
2018-05-01T11:54:48.389Z,1.73
2018-05-01T11:57:50.935Z,2.10
2018-05-01T12:00:53.530Z,0.90
2018-05-01T12:03:56.084Z,4.13
2018-05-01T12:06:58.677Z,2.30
2018-05-01T12:10:01.232Z,3.20
2018-05-01T12:13:03.764Z,3.93
2018-05-01T12:16:06.385Z,1.57
2018-05-01T12:19:08.949Z,2.10
2018-05-01T12:22:11.501Z,1.50
2018-05-01T12:25:14.055Z,0.80
2018-05-01T12:28:16.563Z,2.13
2018-05-01T12:31:19.231Z,2.37
2018-05-01T12:34:21.824Z,1.10
2018-05-01T12:37:24.447Z,1.30
2018-05-01T12:40:26.999Z,2.57
2018-05-01T12:43:29.546Z,1.43
2018-05-01T12:46:32.129Z,1.90
2018-05-01T12:49:34.695Z,1.50
2018-05-01T12:52:37.239Z,1.43
2018-05-01T12:55:39.800Z,3.47
2018-05-01T12:58:42.368Z,2.00
2018-05-01T13:01:44.927Z,2.40
2018-05-01T13:04:47.476Z,2.17
2018-05-01T13:07:50.039Z,3.50
2018-05-01T13:10:52.709Z,6.77
2018-05-01T13:13:55.372Z,1.87
2018-05-01T13:16:57.948Z,0.97
2018-05-01T13:20:00.571Z,3.90
2018-05-01T13:23:03.108Z,2.30
2018-05-01T13:26:05.754Z,1.03
2018-05-01T13:29:08.284Z,1.40
2018-05-01T13:32:10.917Z,1.33
2018-05-01T13:35:13.536Z,0.97
2018-05-01T13:38:16.117Z,2.13
2018-05-01T13:41:18.674Z,1.07
2018-05-01T13:44:21.190Z,0.67
2018-05-01T13:47:23.816Z,6.30
2018-05-01T13:50:26.509Z,3.90
2018-05-01T13:53:29.081Z,1.73
2018-05-01T13:56:31.627Z,3.30
2018-05-01T13:59:34.273Z,1.63
2018-05-01T14:02:36.822Z,1.87
2018-05-01T14:05:39.369Z,2.30
2018-05-01T14:08:41.965Z,0.80
2018-05-01T14:11:44.480Z,1.37
2018-05-01T14:14:47.076Z,1.27
2018-05-01T14:17:49.665Z,0.90
2018-05-01T14:20:52.413Z,0.83
2018-05-01T14:23:54.920Z,2.77
2018-05-01T14:26:57.488Z,1.20
2018-05-01T14:30:00.687Z,2.73
2018-05-01T14:33:03.243Z,15.03
2018-05-01T14:36:05.747Z,1.23
2018-05-01T14:39:08.317Z,4.27
2018-05-01T14:42:10.967Z,3.73
2018-05-01T14:45:14.349Z,2.00
2018-05-01T14:48:16.939Z,1.00
2018-05-01T14:51:20.201Z,1.27
2018-05-01T14:54:22.830Z,0.87
2018-05-01T14:57:25.487Z,1.70
2018-05-01T15:00:28.017Z,3.30
2018-05-01T15:03:31.336Z,1.80
2018-05-01T15:06:33.991Z,1.50
2018-05-01T15:09:36.549Z,4.33
2018-05-01T15:12:39.131Z,5.20
2018-05-01T15:15:41.768Z,1.20
2018-05-01T15:18:44.812Z,1.10
2018-05-01T15:21:47.435Z,1.70
2018-05-01T15:24:50.392Z,1.00
2018-05-01T15:27:53.621Z,1.27
2018-05-01T15:30:56.256Z,9.63
2018-05-01T15:33:58.957Z,2.43
2018-05-01T15:37:01.587Z,2.00
2018-05-01T15:40:04.221Z,1.23
2018-05-01T15:43:13.826Z,1.20
2018-05-01T15:46:19.454Z,1.30
2018-05-01T15:49:32.639Z,1.73
2018-05-01T15:52:36.712Z,1.30
2018-05-01T15:55:40.468Z,6.20
2018-05-01T15:58:49.803Z,0.80
2018-05-01T16:05:15.333Z,2.57
2018-05-01T16:08:28.499Z,3.33
2018-05-01T16:11:37.421Z,1.47
2018-05-01T16:18:31.460Z,2.50
2018-05-01T16:30:05.810Z,2.20
2018-05-01T16:33:08.734Z,3.83
2018-05-01T16:36:11.504Z,1.43
2018-05-01T16:39:16.146Z,1.63
2018-05-01T16:42:18.750Z,2.63
2018-05-01T16:45:21.369Z,1.67
2018-05-01T16:48:24.316Z,1.60
2018-05-01T16:51:26.906Z,2.43
2018-05-01T16:54:29.528Z,3.53
2018-05-01T16:57:32.904Z,2.20
2018-05-01T17:00:35.708Z,3.17
2018-05-01T17:03:38.328Z,2.00
2018-05-01T17:06:40.895Z,4.17
2018-05-01T17:09:43.761Z,3.73
2018-05-01T17:12:46.601Z,1.63
2018-05-01T17:15:49.550Z,1.53
2018-05-01T17:18:52.419Z,1.73
2018-05-01T17:21:55.179Z,5.73
2018-05-01T17:24:57.959Z,7.90
2018-05-01T17:28:00.653Z,1.63
2018-05-01T17:31:03.301Z,2.27
2018-05-01T17:34:05.961Z,1.20
2018-05-01T17:37:08.941Z,3.07
2018-05-01T17:40:11.710Z,1.70
2018-05-01T17:43:14.357Z,4.50
2018-05-01T17:46:17.032Z,1.77
2018-05-01T17:49:20.980Z,2.30
2018-05-01T17:52:23.676Z,2.93
2018-05-01T17:55:28.137Z,1.77
2018-05-01T17:58:30.990Z,2.27
2018-05-01T18:01:33.917Z,2.90
2018-05-01T18:04:37.756Z,2.13
2018-05-01T18:07:40.558Z,2.00
2018-05-01T18:10:43.436Z,2.67
2018-05-01T18:13:47.123Z,4.17
2018-05-01T18:16:49.845Z,2.47
2018-05-01T18:19:52.540Z,2.23
2018-05-01T18:22:55.302Z,2.87
2018-05-01T18:25:57.985Z,2.13
2018-05-01T18:29:03.254Z,1.87
2018-05-01T18:32:06.420Z,1.83
2018-05-01T18:35:15.666Z,4.90
2018-05-01T18:38:18.734Z,3.57
2018-05-01T18:41:23.029Z,4.30
2018-05-01T18:44:26.485Z,1.90
2018-05-01T18:47:29.436Z,4.00
2018-05-01T18:50:40.084Z,4.07
2018-05-01T18:53:35.821Z,15.47
2018-05-01T18:56:38.665Z,3.70
2018-05-01T18:59:41.387Z,9.47
2018-05-01T19:02:44.212Z,4.00
2018-05-01T19:05:46.906Z,2.97
2018-05-01T19:08:49.856Z,13.07
2018-05-01T19:11:53.726Z,7.67
2018-05-01T19:15:13.708Z,3.17
2018-05-01T19:18:17.666Z,4.63
2018-05-01T19:21:20.482Z,3.13
2018-05-01T19:24:23.711Z,5.77
2018-05-01T19:27:26.577Z,4.20
2018-05-01T19:30:29.725Z,4.00
2018-05-01T19:33:33.437Z,4.30
2018-05-01T19:36:36.936Z,4.20
2018-05-01T19:39:41.185Z,3.53
2018-05-01T19:42:45.048Z,5.67
2018-05-01T19:45:48.844Z,48.23
2018-05-01T19:48:51.548Z,15.87
2018-05-01T19:51:54.326Z,6.37
2018-05-01T19:54:56.972Z,3.67
2018-05-01T19:57:59.816Z,5.93
2018-05-01T20:01:02.607Z,3.20
2018-05-01T20:04:05.265Z,2.67
2018-05-01T20:07:08.400Z,3.40
2018-05-01T20:10:11.384Z,4.80
2018-05-01T20:13:14.024Z,3.40
2018-05-01T20:16:16.841Z,4.10
2018-05-01T20:19:20.189Z,4.80
2018-05-01T20:22:22.851Z,22.77
2018-05-01T20:25:25.553Z,70.13
2018-05-01T20:28:32.588Z,9.53
2018-05-01T20:31:35.250Z,3.00
2018-05-01T20:34:37.872Z,4.40
2018-05-01T20:37:40.977Z,4.47
2018-05-01T20:40:43.663Z,6.30
2018-05-01T20:43:46.248Z,3.00
2018-05-01T20:46:49.062Z,3.27
2018-05-01T20:49:51.746Z,8.37
2018-05-01T20:52:54.566Z,3.03
2018-05-01T20:55:58.128Z,4.57
2018-05-01T20:59:01.906Z,3.40
2018-05-01T21:02:04.509Z,4.90
2018-05-01T21:05:07.107Z,5.37
2018-05-01T21:08:09.814Z,29.90
2018-05-01T21:11:12.509Z,89.80
2018-05-01T21:14:15.310Z,74.90
2018-05-01T21:17:17.896Z,14.17
2018-05-01T21:20:20.495Z,6.37
2018-05-01T21:23:24.038Z,6.80
2018-05-01T21:26:26.664Z,5.17
2018-05-01T21:29:31.172Z,6.63
2018-05-01T21:32:33.760Z,4.13
2018-05-01T21:35:36.460Z,19.23
2018-05-01T21:38:39.014Z,9.47
2018-05-01T21:41:41.753Z,9.40
2018-05-01T21:44:44.352Z,7.53
2018-05-01T21:47:46.911Z,4.83
2018-05-01T21:50:49.556Z,5.27
2018-05-01T21:53:52.114Z,5.27
2018-05-01T21:56:54.773Z,6.07
2018-05-01T21:59:58.101Z,6.63
2018-05-01T22:03:00.664Z,60.90
2018-05-01T22:06:03.219Z,94.90
2018-05-01T22:09:07.032Z,59.87
2018-05-01T22:12:09.581Z,10.07
2018-05-01T22:15:12.097Z,6.33
2018-05-01T22:18:14.737Z,6.83
2018-05-01T22:21:17.441Z,7.23
2018-05-01T22:24:20.031Z,6.87
2018-05-01T22:27:22.761Z,4.90
2018-05-01T22:30:25.309Z,6.87
2018-05-01T22:33:28.677Z,7.50
2018-05-01T22:36:31.348Z,5.37
2018-05-01T22:39:33.944Z,5.77
2018-05-01T22:42:36.636Z,8.70
2018-05-01T22:45:39.261Z,5.90
2018-05-01T22:48:41.971Z,8.67
2018-05-01T22:51:44.787Z,6.73
2018-05-01T22:54:48.750Z,5.37
2018-05-01T22:57:51.520Z,8.40
2018-05-01T23:00:54.165Z,6.33
2018-05-01T23:03:57.640Z,5.23
2018-05-01T23:07:00.303Z,7.83
2018-05-01T23:10:02.827Z,5.87
2018-05-01T23:13:05.487Z,8.07
2018-05-01T23:16:08.087Z,8.03
2018-05-01T23:19:10.685Z,7.27
2018-05-01T23:22:14.001Z,8.23
2018-05-01T23:25:16.545Z,8.00
2018-05-01T23:28:19.067Z,7.63
2018-05-01T23:31:21.575Z,6.67
2018-05-01T23:34:24.095Z,5.93
2018-05-01T23:37:26.616Z,11.93
2018-05-01T23:40:29.147Z,7.07
2018-05-01T23:43:31.674Z,7.23
2018-05-01T23:46:34.224Z,6.67
2018-05-01T23:49:36.782Z,6.90
2018-05-01T23:52:39.295Z,7.00
2018-05-01T23:55:41.815Z,6.67
2018-05-01T23:58:44.343Z,9.23
